الصفحة الرئيسية
METAR-TAF:

METAR-TAF

مطار :

Tamworth, أستراليا

دائرة عرض: 31-05S, خط طول: 150-50E, ارتفاع: 410 متر

مراقبة الطقس الحالي

تاريخ ووقت الإصدار 30 دقيقة قبل الساعة 23:00UTC
ريح 9 عقدة من الشرق
درجة الحرارة 23°درجة مئوية
الرطوبة 57%
ضغط 1011 hPa
الرؤية 10 كم أو أكثر

METAR: YSTW 052300Z AUTO 09009KT 9999 // NCD 23/14 Q1011

زمن: 10:30 (23:30 UTC)

توقعات

تاريخ ووقت الإصدار 6ساعات و 19 دقيقة قبل الساعة 17:11UTC
التوقعات صالحة من05 الساعة 18 UTC إلى 06 الساعة 12 UTC
ريح 9 عقدة من الجنوب الشرقي
الرؤية 10 كم أو أكثر
الغيوم لا تقل 1500 م ولا وجود لمزنة ركامية السحاب الأسود
من 06 الساعة 0300 UTC
ريح 8 عقدة من الجنوب/الجنوب الغربي
الرؤية 10 كم أو أكثر
الغيوم لا تقل 1500 م ولا وجود لمزنة ركامية السحاب الأسود

TAF: YSTW 051711Z 0518/0612 13009KT CAVOK FM060300 20008KT CAVOK

أرصاد الطقس والتوقعات من أكثر من 4000 مطار (تقارير الطقس للمطار METAR والتنبؤ بالطقس بالمطارTAF).

المحطات المتاحة هي النقط الصفراء والحمراء على الخريطة.

حرك المؤشر فوق النقطة لمعرفة اسم المحطة.

ثم انقر لمعرفة أرصاد وتوقعات الطقس.

لتغيير الخارطة: اضغط على الأزرار الخضراء مع رمز الصليب الأسود للتكبير. على الزر الأخضر مع شرطة للتصغير، أو على الأسهم الخضراء للخرائط المجاورة.


METAR-TAF: